createdAt,value
2019-03-08T00:01:59.475Z,8.01
2019-03-08T00:04:29.135Z,7.97
2019-03-08T00:06:59.124Z,7.95
2019-03-08T00:09:28.786Z,7.84
2019-03-08T00:11:58.580Z,7.66
2019-03-08T00:14:29.545Z,7.72
2019-03-08T00:17:00.380Z,7.68
2019-03-08T00:19:30.160Z,7.67
2019-03-08T00:21:59.823Z,7.63
2019-03-08T00:24:29.638Z,7.60
2019-03-08T00:26:59.317Z,7.60
2019-03-08T00:29:29.088Z,7.67
2019-03-08T00:31:58.854Z,7.62
2019-03-08T00:34:28.817Z,7.65
2019-03-08T00:36:58.506Z,7.68
2019-03-08T00:39:28.235Z,7.64
2019-03-08T00:41:58.288Z,7.65
2019-03-08T00:44:28.342Z,7.61
2019-03-08T00:46:58.246Z,7.67
2019-03-08T00:49:27.990Z,7.67
2019-03-08T00:51:57.807Z,7.70
2019-03-08T00:54:28.317Z,7.67
2019-03-08T00:56:58.032Z,7.61
2019-03-08T00:59:27.896Z,7.58
2019-03-08T01:01:57.695Z,7.63
2019-03-08T01:04:27.491Z,7.59
2019-03-08T01:06:57.190Z,7.64
2019-03-08T01:09:26.997Z,7.62
2019-03-08T01:11:56.787Z,7.64
2019-03-08T01:14:26.881Z,7.66
2019-03-08T01:16:56.776Z,7.70
2019-03-08T01:19:26.929Z,7.68
2019-03-08T01:21:56.974Z,7.68
2019-03-08T01:24:26.670Z,7.64
2019-03-08T01:26:56.459Z,7.67
2019-03-08T01:29:26.204Z,7.64
2019-03-08T01:31:56.274Z,7.61
2019-03-08T01:34:26.374Z,7.60
2019-03-08T01:36:56.220Z,7.50
2019-03-08T01:39:26.086Z,7.51
2019-03-08T01:41:55.865Z,7.45
2019-03-08T01:44:25.519Z,7.35
2019-03-08T01:46:55.355Z,7.19
2019-03-08T01:49:25.126Z,7.18
2019-03-08T01:51:54.911Z,7.09
2019-03-08T01:54:24.689Z,7.00
2019-03-08T01:56:54.470Z,6.93
2019-03-08T01:59:24.344Z,6.97
2019-03-08T02:01:54.266Z,6.93
2019-03-08T02:04:24.128Z,6.92
2019-03-08T02:06:53.893Z,6.91
2019-03-08T02:09:23.979Z,6.89
2019-03-08T02:11:53.673Z,6.94
2019-03-08T02:14:23.433Z,6.92
2019-03-08T02:16:53.194Z,6.91
2019-03-08T02:19:22.938Z,6.91
2019-03-08T02:21:52.726Z,6.89
2019-03-08T02:24:22.491Z,6.82
2019-03-08T02:26:52.342Z,6.79
2019-03-08T02:29:22.152Z,6.66
2019-03-08T02:31:51.934Z,6.59
2019-03-08T02:34:22.029Z,6.58
2019-03-08T02:36:51.811Z,6.55
2019-03-08T02:39:21.652Z,6.59
2019-03-08T02:41:52.648Z,6.46
2019-03-08T02:44:22.383Z,6.36
2019-03-08T02:46:52.102Z,6.26
2019-03-08T02:49:21.929Z,6.26
2019-03-08T02:51:51.621Z,6.22
2019-03-08T02:54:21.528Z,6.24
2019-03-08T02:56:51.350Z,6.35
2019-03-08T02:59:21.497Z,6.14
2019-03-08T03:01:51.311Z,6.14
2019-03-08T03:04:21.114Z,6.19
2019-03-08T03:06:50.866Z,6.11
2019-03-08T03:09:20.962Z,6.23
2019-03-08T03:11:50.739Z,6.22
2019-03-08T03:14:20.558Z,6.21
2019-03-08T03:16:50.228Z,6.16
2019-03-08T03:19:20.081Z,6.20
2019-03-08T03:21:50.057Z,6.14
2019-03-08T03:24:19.991Z,6.12
2019-03-08T03:26:49.717Z,6.17
2019-03-08T03:29:19.486Z,6.16
2019-03-08T03:31:49.724Z,6.16
2019-03-08T03:34:19.456Z,6.16
2019-03-08T03:36:49.674Z,6.17
2019-03-08T03:39:19.446Z,6.13
2019-03-08T03:41:49.180Z,6.19
2019-03-08T03:44:19.945Z,6.18
2019-03-08T03:46:49.724Z,6.19
2019-03-08T03:49:19.577Z,6.26
2019-03-08T03:51:49.324Z,6.28
2019-03-08T03:54:18.999Z,6.44
2019-03-08T03:56:48.783Z,6.44
2019-03-08T03:59:18.538Z,6.43
2019-03-08T04:01:50.167Z,6.40
2019-03-08T04:04:19.828Z,6.37
2019-03-08T04:06:49.513Z,6.37
2019-03-08T04:09:19.325Z,6.38
2019-03-08T04:11:49.144Z,6.34
2019-03-08T04:14:18.985Z,6.36
2019-03-08T04:16:48.815Z,6.42
2019-03-08T04:19:18.468Z,6.42
2019-03-08T04:21:48.315Z,6.46
2019-03-08T04:24:18.330Z,6.47
2019-03-08T04:26:48.362Z,6.54
2019-03-08T04:29:18.135Z,6.53
2019-03-08T04:31:47.916Z,6.54
2019-03-08T04:34:17.661Z,6.57
2019-03-08T04:36:47.491Z,6.52
2019-03-08T04:39:18.155Z,6.57
2019-03-08T04:41:48.675Z,6.53
2019-03-08T04:44:18.767Z,6.50
2019-03-08T04:46:49.010Z,6.47
2019-03-08T04:49:18.812Z,6.48
2019-03-08T04:51:48.618Z,6.49
2019-03-08T04:54:19.565Z,6.44
2019-03-08T04:56:49.264Z,6.44
2019-03-08T04:59:19.303Z,6.40
2019-03-08T05:01:49.312Z,6.38
2019-03-08T05:04:19.122Z,6.39
2019-03-08T05:06:48.893Z,6.38
2019-03-08T05:09:18.866Z,6.37
2019-03-08T05:11:48.999Z,6.39
2019-03-08T05:14:19.066Z,6.43
2019-03-08T05:16:49.215Z,6.43
2019-03-08T05:19:19.328Z,6.47
2019-03-08T05:21:49.319Z,6.56
2019-03-08T05:24:19.049Z,6.55
2019-03-08T05:26:48.759Z,6.49
2019-03-08T05:29:18.501Z,6.53
2019-03-08T05:31:48.583Z,6.52
2019-03-08T05:34:18.479Z,6.53
2019-03-08T05:36:48.355Z,6.47
2019-03-08T05:39:18.458Z,6.40
2019-03-08T05:41:48.234Z,6.38
2019-03-08T05:44:17.926Z,6.34
2019-03-08T05:46:47.637Z,6.30
2019-03-08T05:49:17.621Z,6.29
2019-03-08T05:51:47.454Z,6.24
2019-03-08T05:54:17.154Z,6.03
2019-03-08T05:56:46.972Z,5.87
2019-03-08T05:59:16.680Z,5.81
2019-03-08T06:01:46.421Z,5.76
2019-03-08T06:04:16.188Z,5.76
2019-03-08T06:06:45.969Z,5.77
2019-03-08T06:09:15.989Z,5.73
2019-03-08T06:11:45.666Z,5.80
2019-03-08T06:14:15.575Z,5.82
2019-03-08T06:16:45.651Z,5.84
2019-03-08T06:19:15.486Z,5.84
2019-03-08T06:21:45.533Z,5.85
2019-03-08T06:24:15.326Z,5.88
2019-03-08T06:26:46.120Z,5.94
2019-03-08T06:29:15.919Z,5.94
2019-03-08T06:31:46.749Z,6.01
2019-03-08T06:34:16.873Z,6.01
2019-03-08T06:36:46.590Z,6.10
2019-03-08T06:39:16.341Z,6.13
2019-03-08T06:41:46.176Z,6.14
2019-03-08T06:44:16.234Z,6.16
2019-03-08T06:46:46.018Z,6.14
2019-03-08T06:49:15.690Z,6.18
2019-03-08T06:51:45.390Z,6.20
2019-03-08T06:54:15.199Z,6.20
2019-03-08T06:56:44.984Z,6.26
2019-03-08T06:59:36.767Z,6.26
2019-03-08T07:02:06.636Z,6.25
2019-03-08T07:04:36.364Z,6.17
2019-03-08T07:07:06.113Z,6.17
2019-03-08T07:09:35.962Z,6.14
2019-03-08T07:12:05.778Z,6.07
2019-03-08T07:14:35.613Z,6.02
2019-03-08T07:17:05.372Z,5.76
2019-03-08T07:19:40.732Z,5.76
2019-03-08T07:22:13.197Z,5.72
2019-03-08T07:25:16.949Z,5.68
2019-03-08T07:28:06.730Z,5.69
2019-03-08T07:30:58.536Z,5.68
2019-03-08T07:33:53.464Z,5.72
2019-03-08T07:37:00.679Z,5.76
2019-03-08T07:39:44.674Z,5.76
2019-03-08T07:42:42.278Z,5.81
2019-03-08T07:45:29.685Z,5.84
2019-03-08T07:48:30.463Z,5.82
2019-03-08T07:51:22.007Z,5.87
2019-03-08T07:53:58.265Z,5.83
2019-03-08T07:56:38.961Z,5.86
2019-03-08T07:59:43.158Z,5.80
2019-03-08T08:02:41.253Z,5.83
2019-03-08T08:05:16.513Z,5.83
2019-03-08T08:07:51.928Z,5.87
2019-03-08T08:10:30.406Z,5.90
2019-03-08T08:13:17.791Z,5.99
2019-03-08T08:16:06.625Z,6.06
2019-03-08T08:18:51.202Z,5.97
2019-03-08T08:21:44.579Z,5.77
2019-03-08T08:24:21.567Z,5.11
2019-03-08T08:27:09.412Z,7.01
2019-03-08T08:30:07.175Z,11.72
2019-03-08T08:32:48.438Z,10.27
2019-03-08T08:35:40.480Z,14.53
2019-03-08T08:38:38.328Z,10.72
2019-03-08T08:41:36.243Z,10.10
2019-03-08T08:44:23.485Z,16.91
2019-03-08T08:47:08.155Z,10.62
2019-03-08T08:49:54.292Z,7.37
2019-03-08T08:52:33.134Z,8.41
2019-03-08T08:55:20.967Z,5.42
2019-03-08T08:58:01.332Z,5.39
2019-03-08T09:00:46.866Z,5.46
2019-03-08T09:03:38.705Z,5.72
2019-03-08T09:06:39.863Z,5.84
2019-03-08T09:09:32.415Z,6.04
2019-03-08T09:12:13.812Z,6.42
2019-03-08T09:14:58.218Z,6.36
2019-03-08T09:17:39.006Z,6.32
2019-03-08T09:20:26.530Z,6.84
2019-03-08T09:23:04.819Z,7.22
2019-03-08T09:25:51.988Z,7.49
2019-03-08T09:28:38.285Z,7.94
2019-03-08T09:31:29.346Z,7.94
2019-03-08T09:34:09.870Z,9.56
2019-03-08T09:36:49.299Z,9.62
2019-03-08T09:39:36.877Z,9.95
2019-03-08T09:42:21.673Z,9.54
2019-03-08T09:45:06.182Z,9.69
2019-03-08T09:47:45.069Z,10.30
2019-03-08T09:50:33.669Z,10.36
2019-03-08T09:53:21.174Z,9.91
2019-03-08T09:56:12.865Z,9.89
2019-03-08T09:58:55.270Z,9.75
2019-03-08T10:01:40.749Z,10.22
2019-03-08T10:04:19.278Z,9.87
2019-03-08T10:06:57.683Z,10.17
2019-03-08T10:09:45.981Z,10.61
2019-03-08T10:12:29.390Z,9.62
2019-03-08T10:15:06.134Z,10.18
2019-03-08T10:17:52.415Z,9.52
2019-03-08T10:20:40.713Z,9.30
2019-03-08T10:23:35.285Z,8.94
2019-03-08T10:26:18.217Z,8.78
2019-03-08T10:29:03.258Z,8.62
2019-03-08T10:31:39.058Z,8.48
2019-03-08T10:34:27.356Z,9.11
2019-03-08T10:37:06.724Z,9.95
2019-03-08T10:39:53.770Z,10.61
2019-03-08T10:42:30.495Z,10.61
2019-03-08T10:45:06.054Z,10.32
2019-03-08T10:47:57.786Z,10.17
2019-03-08T10:50:36.118Z,9.56
2019-03-08T10:53:14.938Z,9.30
2019-03-08T10:55:51.778Z,9.19
2019-03-08T10:58:46.122Z,9.23
2019-03-08T11:01:22.869Z,8.87
2019-03-08T11:04:14.934Z,8.16
2019-03-08T11:06:58.419Z,7.95
2019-03-08T11:09:53.566Z,7.64
2019-03-08T11:12:57.787Z,7.98
2019-03-08T11:15:38.311Z,8.11
2019-03-08T11:18:24.261Z,7.87
2019-03-08T11:21:25.378Z,7.62
2019-03-08T11:24:14.528Z,7.66
2019-03-08T11:27:09.625Z,7.81
2019-03-08T11:29:57.542Z,7.92
2019-03-08T11:32:40.637Z,8.28
2019-03-08T11:35:28.503Z,8.14
2019-03-08T11:38:05.688Z,8.03
2019-03-08T11:40:42.550Z,7.37
2019-03-08T11:43:49.252Z,7.44
2019-03-08T11:46:30.055Z,7.71
2019-03-08T11:49:10.532Z,8.16
2019-03-08T11:51:57.936Z,8.15
2019-03-08T11:54:46.591Z,8.03
2019-03-08T11:57:32.957Z,7.81
2019-03-08T12:00:09.262Z,7.68
2019-03-08T12:02:55.670Z,7.77
2019-03-08T12:06:01.123Z,7.77
2019-03-08T12:08:55.552Z,7.52
2019-03-08T12:11:47.148Z,7.63
2019-03-08T12:14:35.859Z,7.53
2019-03-08T12:17:23.443Z,7.45
2019-03-08T12:20:24.809Z,7.75
2019-03-08T12:23:12.393Z,8.32
2019-03-08T12:26:10.667Z,8.71
2019-03-08T12:28:59.337Z,8.75
2019-03-08T12:31:49.526Z,8.40
2019-03-08T12:34:50.428Z,7.97
2019-03-08T12:37:25.626Z,7.80
2019-03-08T12:40:03.397Z,7.66
2019-03-08T12:42:51.943Z,7.74
2019-03-08T12:45:40.693Z,7.50
2019-03-08T12:48:28.216Z,7.64
2019-03-08T12:51:25.883Z,8.33
2019-03-08T12:54:19.457Z,8.61
2019-03-08T12:57:07.988Z,8.39
2019-03-08T12:59:56.028Z,8.35
2019-03-08T13:02:47.585Z,8.38
2019-03-08T13:05:42.568Z,8.35
2019-03-08T13:08:43.732Z,8.42
2019-03-08T13:11:13.653Z,8.42
2019-03-08T13:13:43.416Z,8.05
2019-03-08T13:16:13.438Z,7.99
2019-03-08T13:18:43.118Z,8.02
2019-03-08T13:21:13.528Z,7.80
2019-03-08T13:23:43.839Z,7.79
2019-03-08T13:26:14.503Z,7.81
2019-03-08T13:28:44.528Z,8.35
2019-03-08T13:31:14.294Z,8.56
2019-03-08T13:33:44.372Z,8.63
2019-03-08T13:36:14.206Z,8.85
2019-03-08T13:38:44.904Z,9.03
2019-03-08T13:41:14.667Z,9.70
2019-03-08T13:43:44.350Z,9.38
2019-03-08T13:46:14.029Z,9.63
2019-03-08T13:48:43.736Z,9.76
2019-03-08T13:51:13.631Z,9.50
2019-03-08T13:53:43.641Z,9.33
2019-03-08T13:56:13.616Z,9.06
2019-03-08T13:58:43.307Z,9.04
2019-03-08T14:01:13.272Z,8.81
2019-03-08T14:03:43.020Z,8.92
2019-03-08T14:06:12.808Z,9.04
2019-03-08T14:08:42.595Z,9.39
2019-03-08T14:11:12.466Z,9.70
2019-03-08T14:13:42.207Z,9.73
2019-03-08T14:16:12.016Z,9.31
2019-03-08T14:18:41.685Z,9.22
2019-03-08T14:21:11.484Z,8.92
2019-03-08T14:23:41.319Z,8.92
2019-03-08T14:26:11.101Z,8.74
2019-03-08T14:28:40.820Z,8.84
2019-03-08T14:31:24.303Z,8.71
2019-03-08T14:33:55.347Z,8.60
2019-03-08T14:36:25.137Z,8.35
2019-03-08T14:38:54.889Z,8.38
2019-03-08T14:41:39.032Z,8.44
2019-03-08T14:44:29.910Z,8.61
2019-03-08T14:47:21.545Z,8.44
2019-03-08T14:49:55.180Z,8.51
2019-03-08T14:52:23.417Z,8.85
2019-03-08T14:54:53.213Z,9.06
2019-03-08T14:57:27.229Z,9.11
2019-03-08T14:59:54.567Z,9.37
2019-03-08T15:02:24.556Z,9.22
2019-03-08T15:04:54.337Z,9.12
2019-03-08T15:07:24.044Z,8.66
2019-03-08T15:09:53.688Z,8.28
2019-03-08T15:12:23.726Z,8.05
2019-03-08T15:14:54.159Z,8.12
2019-03-08T15:17:23.900Z,8.22
2019-03-08T15:19:54.114Z,8.23
2019-03-08T15:22:25.112Z,8.13
2019-03-08T15:24:54.967Z,8.27
2019-03-08T15:27:24.650Z,8.44
2019-03-08T15:29:54.959Z,8.32
2019-03-08T15:32:24.889Z,8.25
2019-03-08T15:34:54.560Z,8.32
2019-03-08T15:37:24.550Z,8.25
2019-03-08T15:39:54.315Z,8.23
2019-03-08T15:42:24.107Z,8.22
2019-03-08T15:44:53.938Z,8.15
2019-03-08T15:47:24.365Z,8.14
2019-03-08T15:49:54.420Z,8.07
2019-03-08T15:52:24.813Z,8.11
2019-03-08T15:54:54.481Z,8.09
2019-03-08T15:57:24.257Z,8.16
2019-03-08T15:59:54.194Z,8.37
2019-03-08T16:02:24.003Z,8.54
2019-03-08T16:04:57.158Z,8.58
2019-03-08T16:07:27.269Z,8.61
2019-03-08T16:09:57.051Z,8.26
2019-03-08T16:12:26.741Z,8.13
2019-03-08T16:14:56.625Z,8.15
2019-03-08T16:17:26.372Z,8.15
2019-03-08T16:19:58.808Z,8.03
2019-03-08T16:22:29.853Z,7.94
2019-03-08T16:25:00.703Z,7.76
2019-03-08T16:27:30.731Z,7.66
2019-03-08T16:30:02.513Z,7.53
2019-03-08T16:32:39.775Z,7.38
2019-03-08T16:35:09.542Z,7.33
2019-03-08T16:37:56.978Z,7.27
2019-03-08T16:40:48.334Z,7.14
2019-03-08T16:43:36.263Z,7.14
2019-03-08T16:46:19.257Z,7.05
2019-03-08T16:48:55.415Z,7.04
2019-03-08T16:51:38.697Z,6.93
2019-03-08T16:54:21.262Z,7.05
2019-03-08T16:56:59.066Z,7.03
2019-03-08T16:59:39.422Z,7.07
2019-03-08T17:02:30.799Z,7.10
2019-03-08T17:05:07.003Z,7.08
2019-03-08T17:07:50.911Z,7.03
2019-03-08T17:10:49.167Z,6.94
2019-03-08T17:13:36.943Z,7.01
2019-03-08T17:16:25.427Z,6.92
2019-03-08T17:19:20.108Z,6.85
2019-03-08T17:21:55.689Z,6.84
2019-03-08T17:24:35.151Z,6.80
2019-03-08T17:27:22.955Z,6.79
2019-03-08T17:30:10.748Z,6.75
2019-03-08T17:32:47.189Z,6.71
2019-03-08T17:35:35.300Z,6.67
2019-03-08T17:38:22.600Z,6.66
2019-03-08T17:41:10.082Z,6.66
2019-03-08T17:43:46.947Z,6.60
2019-03-08T17:46:27.274Z,6.61
2019-03-08T17:49:16.338Z,6.67
2019-03-08T17:51:58.497Z,6.67
2019-03-08T17:54:49.999Z,6.67
2019-03-08T17:57:29.136Z,6.77
2019-03-08T18:00:13.742Z,6.80
2019-03-08T18:03:08.435Z,6.83
2019-03-08T18:05:55.712Z,6.88
2019-03-08T18:08:59.615Z,6.85
2019-03-08T18:11:46.182Z,6.93
2019-03-08T18:14:33.589Z,6.96
2019-03-08T18:17:09.333Z,6.87
2019-03-08T18:20:16.049Z,6.95
2019-03-08T18:23:22.880Z,6.95
2019-03-08T18:26:10.061Z,6.88
2019-03-08T18:29:04.478Z,6.97
2019-03-08T18:31:49.504Z,6.93
2019-03-08T18:34:39.444Z,7.01
2019-03-08T18:37:25.258Z,6.98
2019-03-08T18:40:02.875Z,6.97
2019-03-08T18:42:54.576Z,6.99
2019-03-08T18:45:37.786Z,7.01
2019-03-08T18:48:16.733Z,6.97
2019-03-08T18:51:08.334Z,6.94
2019-03-08T18:54:15.279Z,6.91
2019-03-08T18:57:06.806Z,6.90
2019-03-08T18:59:54.033Z,7.02
2019-03-08T19:02:37.631Z,6.88
2019-03-08T19:05:36.238Z,6.69
2019-03-08T19:08:37.353Z,6.68
2019-03-08T19:11:24.894Z,6.68
2019-03-08T19:14:24.542Z,6.65
2019-03-08T19:17:13.571Z,6.65
2019-03-08T19:19:54.430Z,6.63
2019-03-08T19:22:34.213Z,6.64
2019-03-08T19:25:15.415Z,6.66
2019-03-08T19:28:04.398Z,6.68
2019-03-08T19:30:53.172Z,6.64
2019-03-08T19:33:41.969Z,6.62
2019-03-08T19:36:29.581Z,6.63
2019-03-08T19:39:21.462Z,6.73
2019-03-08T19:42:16.627Z,6.73
2019-03-08T19:44:55.565Z,6.75
2019-03-08T19:47:41.079Z,6.66
2019-03-08T19:50:29.896Z,6.70
2019-03-08T19:53:06.790Z,6.73
2019-03-08T19:55:42.814Z,6.71
2019-03-08T19:58:40.263Z,6.73
2019-03-08T20:01:44.231Z,6.61
2019-03-08T20:04:31.680Z,6.60
2019-03-08T20:07:24.116Z,6.53
2019-03-08T20:10:06.640Z,6.74
2019-03-08T20:12:58.810Z,6.57
2019-03-08T20:15:37.635Z,6.35
2019-03-08T20:18:29.236Z,6.20
2019-03-08T20:21:20.126Z,6.30
2019-03-08T20:24:11.918Z,6.26
2019-03-08T20:27:06.961Z,6.29
2019-03-08T20:29:50.043Z,6.33
2019-03-08T20:32:43.406Z,6.40
2019-03-08T20:35:23.418Z,6.30
2019-03-08T20:38:01.683Z,6.35
2019-03-08T20:40:53.403Z,6.37
2019-03-08T20:43:28.260Z,6.34
2019-03-08T20:46:08.098Z,6.39
2019-03-08T20:48:38.176Z,6.39
2019-03-08T20:51:08.107Z,6.38
2019-03-08T20:53:38.173Z,6.44
2019-03-08T20:58:31.604Z,6.16
2019-03-08T21:01:24.694Z,6.16
2019-03-08T21:03:54.568Z,6.16
2019-03-08T21:06:26.123Z,6.16
2019-03-08T21:09:38.705Z,6.16
2019-03-08T21:12:15.466Z,6.16
2019-03-08T21:14:45.277Z,-143.88
2019-03-08T21:17:15.485Z,-143.88
2019-03-08T21:19:45.635Z,-143.88
2019-03-08T21:22:15.967Z,-91.92
